sensor_id;sensor_type;location;lat;lon;timestamp;P1;durP1;ratioP1;P2;durP2;ratioP2
36355;SDS011;22384;54.302;18.596;2023-08-24T00:01:12;4.93;;;1.92;;
36355;SDS011;22384;54.302;18.596;2023-08-24T00:03:38;2.72;;;1.77;;
36355;SDS011;22384;54.302;18.596;2023-08-24T00:06:04;4.47;;;1.70;;
36355;SDS011;22384;54.302;18.596;2023-08-24T00:08:31;5.82;;;2.35;;
36355;SDS011;22384;54.302;18.596;2023-08-24T00:10:57;3.60;;;2.08;;
36355;SDS011;22384;54.302;18.596;2023-08-24T00:13:23;5.70;;;2.38;;
36355;SDS011;22384;54.302;18.596;2023-08-24T00:15:50;12.25;;;2.45;;
36355;SDS011;22384;54.302;18.596;2023-08-24T00:18:16;10.88;;;2.45;;
36355;SDS011;22384;54.302;18.596;2023-08-24T00:20:43;4.20;;;1.80;;
36355;SDS011;22384;54.302;18.596;2023-08-24T00:23:09;5.40;;;2.00;;
36355;SDS011;22384;54.302;18.596;2023-08-24T00:25:35;5.35;;;2.20;;
36355;SDS011;22384;54.302;18.596;2023-08-24T00:28:01;4.43;;;1.98;;
36355;SDS011;22384;54.302;18.596;2023-08-24T00:30:27;5.80;;;1.70;;
36355;SDS011;22384;54.302;18.596;2023-08-24T00:32:53;9.15;;;2.17;;
36355;SDS011;22384;54.302;18.596;2023-08-24T00:35:19;7.30;;;1.77;;
36355;SDS011;22384;54.302;18.596;2023-08-24T00:37:45;3.65;;;1.80;;
36355;SDS011;22384;54.302;18.596;2023-08-24T00:40:11;4.60;;;2.10;;
36355;SDS011;22384;54.302;18.596;2023-08-24T00:42:38;6.03;;;2.03;;
36355;SDS011;22384;54.302;18.596;2023-08-24T00:45:04;5.20;;;1.83;;
36355;SDS011;22384;54.302;18.596;2023-08-24T00:47:31;4.88;;;2.13;;
36355;SDS011;22384;54.302;18.596;2023-08-24T00:49:57;3.03;;;1.80;;
36355;SDS011;22384;54.302;18.596;2023-08-24T00:52:24;7.10;;;1.85;;
36355;SDS011;22384;54.302;18.596;2023-08-24T00:54:50;3.60;;;2.00;;
36355;SDS011;22384;54.302;18.596;2023-08-24T00:57:16;6.03;;;1.85;;
36355;SDS011;22384;54.302;18.596;2023-08-24T00:59:42;5.93;;;1.80;;
36355;SDS011;22384;54.302;18.596;2023-08-24T01:02:08;3.47;;;1.80;;
36355;SDS011;22384;54.302;18.596;2023-08-24T01:04:34;5.40;;;2.03;;
36355;SDS011;22384;54.302;18.596;2023-08-24T01:07:00;4.30;;;1.50;;
36355;SDS011;22384;54.302;18.596;2023-08-24T01:09:26;3.60;;;1.85;;
36355;SDS011;22384;54.302;18.596;2023-08-24T01:14:34;7.38;;;1.92;;
36355;SDS011;22384;54.302;18.596;2023-08-24T01:17:03;3.83;;;1.65;;
36355;SDS011;22384;54.302;18.596;2023-08-24T01:19:45;5.97;;;1.88;;
36355;SDS011;22384;54.302;18.596;2023-08-24T01:24:45;3.83;;;1.58;;
36355;SDS011;22384;54.302;18.596;2023-08-24T01:27:13;5.60;;;1.77;;
36355;SDS011;22384;54.302;18.596;2023-08-24T01:29:40;5.40;;;1.92;;
36355;SDS011;22384;54.302;18.596;2023-08-24T01:32:10;4.13;;;1.73;;
36355;SDS011;22384;54.302;18.596;2023-08-24T01:34:37;4.07;;;1.85;;
36355;SDS011;22384;54.302;18.596;2023-08-24T01:37:04;7.90;;;2.05;;
36355;SDS011;22384;54.302;18.596;2023-08-24T01:40:05;2.70;;;1.67;;
36355;SDS011;22384;54.302;18.596;2023-08-24T01:42:23;4.30;;;2.00;;
36355;SDS011;22384;54.302;18.596;2023-08-24T01:44:55;4.22;;;2.03;;
36355;SDS011;22384;54.302;18.596;2023-08-24T01:47:23;7.40;;;2.08;;
36355;SDS011;22384;54.302;18.596;2023-08-24T01:49:50;4.00;;;1.95;;
36355;SDS011;22384;54.302;18.596;2023-08-24T01:52:16;4.85;;;2.10;;
36355;SDS011;22384;54.302;18.596;2023-08-24T01:54:43;8.80;;;2.47;;
36355;SDS011;22384;54.302;18.596;2023-08-24T01:57:10;3.72;;;2.20;;
36355;SDS011;22384;54.302;18.596;2023-08-24T01:59:36;4.18;;;1.73;;
36355;SDS011;22384;54.302;18.596;2023-08-24T02:02:02;4.68;;;2.30;;
36355;SDS011;22384;54.302;18.596;2023-08-24T02:04:28;3.85;;;2.70;;
36355;SDS011;22384;54.302;18.596;2023-08-24T02:06:54;4.40;;;2.00;;
36355;SDS011;22384;54.302;18.596;2023-08-24T02:09:20;4.22;;;1.80;;
36355;SDS011;22384;54.302;18.596;2023-08-24T02:11:46;3.78;;;2.03;;
36355;SDS011;22384;54.302;18.596;2023-08-24T02:14:12;4.25;;;2.00;;
36355;SDS011;22384;54.302;18.596;2023-08-24T02:16:38;5.10;;;2.10;;
36355;SDS011;22384;54.302;18.596;2023-08-24T02:19:04;6.68;;;1.95;;
36355;SDS011;22384;54.302;18.596;2023-08-24T02:21:30;6.60;;;2.38;;
36355;SDS011;22384;54.302;18.596;2023-08-24T02:23:56;6.40;;;2.28;;
36355;SDS011;22384;54.302;18.596;2023-08-24T02:26:22;5.10;;;2.22;;
36355;SDS011;22384;54.302;18.596;2023-08-24T02:28:48;7.35;;;2.20;;
36355;SDS011;22384;54.302;18.596;2023-08-24T02:31:14;3.15;;;2.13;;
36355;SDS011;22384;54.302;18.596;2023-08-24T02:33:41;4.78;;;2.40;;
36355;SDS011;22384;54.302;18.596;2023-08-24T02:36:07;6.88;;;2.20;;
36355;SDS011;22384;54.302;18.596;2023-08-24T02:38:33;4.85;;;2.50;;
36355;SDS011;22384;54.302;18.596;2023-08-24T02:43:28;6.03;;;2.60;;
36355;SDS011;22384;54.302;18.596;2023-08-24T02:45:55;7.68;;;2.58;;
36355;SDS011;22384;54.302;18.596;2023-08-24T02:48:24;5.82;;;2.63;;
36355;SDS011;22384;54.302;18.596;2023-08-24T02:50:50;8.10;;;2.40;;
36355;SDS011;22384;54.302;18.596;2023-08-24T02:53:16;4.05;;;2.17;;
36355;SDS011;22384;54.302;18.596;2023-08-24T02:55:42;5.15;;;2.30;;
36355;SDS011;22384;54.302;18.596;2023-08-24T02:58:08;5.18;;;3.10;;
36355;SDS011;22384;54.302;18.596;2023-08-24T03:00:37;2.65;;;2.05;;
36355;SDS011;22384;54.302;18.596;2023-08-24T03:03:03;9.75;;;2.45;;
36355;SDS011;22384;54.302;18.596;2023-08-24T03:05:31;7.22;;;2.67;;
36355;SDS011;22384;54.302;18.596;2023-08-24T03:07:57;8.05;;;2.22;;
36355;SDS011;22384;54.302;18.596;2023-08-24T03:10:23;4.78;;;2.30;;
36355;SDS011;22384;54.302;18.596;2023-08-24T03:12:49;7.18;;;2.42;;
36355;SDS011;22384;54.302;18.596;2023-08-24T03:15:15;4.18;;;2.00;;
36355;SDS011;22384;54.302;18.596;2023-08-24T03:17:41;7.53;;;2.30;;
36355;SDS011;22384;54.302;18.596;2023-08-24T03:20:08;4.20;;;2.40;;
36355;SDS011;22384;54.302;18.596;2023-08-24T03:22:35;3.88;;;2.45;;
36355;SDS011;22384;54.302;18.596;2023-08-24T03:25:01;9.60;;;2.33;;
36355;SDS011;22384;54.302;18.596;2023-08-24T03:27:28;4.20;;;1.90;;
36355;SDS011;22384;54.302;18.596;2023-08-24T03:29:54;5.80;;;2.30;;
36355;SDS011;22384;54.302;18.596;2023-08-24T03:32:20;5.65;;;2.53;;
36355;SDS011;22384;54.302;18.596;2023-08-24T03:34:46;8.23;;;2.10;;
36355;SDS011;22384;54.302;18.596;2023-08-24T03:37:12;2.45;;;1.95;;
36355;SDS011;22384;54.302;18.596;2023-08-24T03:39:38;5.65;;;2.83;;
36355;SDS011;22384;54.302;18.596;2023-08-24T03:42:05;4.82;;;1.80;;
36355;SDS011;22384;54.302;18.596;2023-08-24T03:44:31;7.13;;;2.17;;
36355;SDS011;22384;54.302;18.596;2023-08-24T03:46:57;2.80;;;2.30;;
36355;SDS011;22384;54.302;18.596;2023-08-24T03:49:23;6.03;;;1.92;;
36355;SDS011;22384;54.302;18.596;2023-08-24T03:51:49;6.38;;;2.13;;
36355;SDS011;22384;54.302;18.596;2023-08-24T03:54:15;4.30;;;2.15;;
36355;SDS011;22384;54.302;18.596;2023-08-24T03:56:42;3.22;;;1.90;;
36355;SDS011;22384;54.302;18.596;2023-08-24T03:59:08;4.32;;;2.00;;
36355;SDS011;22384;54.302;18.596;2023-08-24T04:01:34;4.22;;;1.65;;
36355;SDS011;22384;54.302;18.596;2023-08-24T04:04:00;5.03;;;1.73;;
36355;SDS011;22384;54.302;18.596;2023-08-24T04:06:26;4.32;;;2.03;;
36355;SDS011;22384;54.302;18.596;2023-08-24T04:08:52;5.82;;;2.13;;
36355;SDS011;22384;54.302;18.596;2023-08-24T04:11:18;2.47;;;1.85;;
36355;SDS011;22384;54.302;18.596;2023-08-24T04:13:44;12.07;;;2.70;;
36355;SDS011;22384;54.302;18.596;2023-08-24T04:16:10;2.92;;;1.73;;
36355;SDS011;22384;54.302;18.596;2023-08-24T04:18:36;4.13;;;1.80;;
36355;SDS011;22384;54.302;18.596;2023-08-24T04:21:02;17.25;;;2.92;;
36355;SDS011;22384;54.302;18.596;2023-08-24T04:23:30;5.07;;;2.03;;
36355;SDS011;22384;54.302;18.596;2023-08-24T04:25:56;6.65;;;2.17;;
36355;SDS011;22384;54.302;18.596;2023-08-24T04:28:22;6.38;;;2.10;;
36355;SDS011;22384;54.302;18.596;2023-08-24T04:30:49;2.55;;;1.95;;
36355;SDS011;22384;54.302;18.596;2023-08-24T04:33:15;4.93;;;2.13;;
36355;SDS011;22384;54.302;18.596;2023-08-24T04:35:41;4.43;;;1.88;;
36355;SDS011;22384;54.302;18.596;2023-08-24T04:38:07;3.47;;;1.58;;
36355;SDS011;22384;54.302;18.596;2023-08-24T04:40:48;6.35;;;2.13;;
36355;SDS011;22384;54.302;18.596;2023-08-24T04:43:15;4.57;;;1.77;;
36355;SDS011;22384;54.302;18.596;2023-08-24T04:45:42;3.15;;;1.88;;
36355;SDS011;22384;54.302;18.596;2023-08-24T04:48:08;7.00;;;2.63;;
36355;SDS011;22384;54.302;18.596;2023-08-24T04:50:34;2.88;;;1.50;;
36355;SDS011;22384;54.302;18.596;2023-08-24T04:53:00;2.78;;;1.63;;
36355;SDS011;22384;54.302;18.596;2023-08-24T04:55:25;3.05;;;1.75;;
36355;SDS011;22384;54.302;18.596;2023-08-24T04:57:51;6.88;;;1.90;;
36355;SDS011;22384;54.302;18.596;2023-08-24T05:00:17;4.30;;;1.90;;
36355;SDS011;22384;54.302;18.596;2023-08-24T05:02:44;5.03;;;2.17;;
36355;SDS011;22384;54.302;18.596;2023-08-24T05:05:09;6.85;;;2.40;;
36355;SDS011;22384;54.302;18.596;2023-08-24T05:07:39;5.07;;;2.00;;
36355;SDS011;22384;54.302;18.596;2023-08-24T05:10:05;6.47;;;2.00;;
36355;SDS011;22384;54.302;18.596;2023-08-24T05:12:31;6.28;;;1.70;;
36355;SDS011;22384;54.302;18.596;2023-08-24T05:15:03;5.10;;;2.10;;
36355;SDS011;22384;54.302;18.596;2023-08-24T05:17:29;5.68;;;2.00;;
36355;SDS011;22384;54.302;18.596;2023-08-24T05:19:56;6.78;;;1.65;;
36355;SDS011;22384;54.302;18.596;2023-08-24T05:22:22;6.15;;;1.55;;
36355;SDS011;22384;54.302;18.596;2023-08-24T05:24:48;9.25;;;2.28;;
36355;SDS011;22384;54.302;18.596;2023-08-24T05:27:14;5.97;;;1.95;;
36355;SDS011;22384;54.302;18.596;2023-08-24T05:29:41;5.65;;;1.88;;
36355;SDS011;22384;54.302;18.596;2023-08-24T05:32:07;9.88;;;1.75;;
36355;SDS011;22384;54.302;18.596;2023-08-24T05:34:33;3.30;;;1.48;;
36355;SDS011;22384;54.302;18.596;2023-08-24T05:36:59;9.77;;;2.30;;
36355;SDS011;22384;54.302;18.596;2023-08-24T05:39:25;6.18;;;1.70;;
36355;SDS011;22384;54.302;18.596;2023-08-24T05:41:51;4.97;;;2.08;;
36355;SDS011;22384;54.302;18.596;2023-08-24T05:44:18;3.47;;;1.88;;
36355;SDS011;22384;54.302;18.596;2023-08-24T05:46:44;9.90;;;2.03;;
36355;SDS011;22384;54.302;18.596;2023-08-24T05:49:10;7.95;;;1.85;;
36355;SDS011;22384;54.302;18.596;2023-08-24T05:51:36;8.90;;;2.28;;
36355;SDS011;22384;54.302;18.596;2023-08-24T05:54:02;6.90;;;1.60;;
36355;SDS011;22384;54.302;18.596;2023-08-24T05:56:28;4.93;;;1.88;;
36355;SDS011;22384;54.302;18.596;2023-08-24T05:58:54;8.20;;;1.75;;
36355;SDS011;22384;54.302;18.596;2023-08-24T06:01:20;7.72;;;1.92;;
36355;SDS011;22384;54.302;18.596;2023-08-24T06:03:46;5.85;;;1.70;;
36355;SDS011;22384;54.302;18.596;2023-08-24T06:06:12;9.80;;;1.58;;
36355;SDS011;22384;54.302;18.596;2023-08-24T06:08:39;9.45;;;1.67;;
36355;SDS011;22384;54.302;18.596;2023-08-24T06:11:05;8.15;;;2.17;;
36355;SDS011;22384;54.302;18.596;2023-08-24T06:13:31;6.00;;;1.75;;
36355;SDS011;22384;54.302;18.596;2023-08-24T06:15:57;8.13;;;1.63;;
36355;SDS011;22384;54.302;18.596;2023-08-24T06:18:23;10.65;;;1.88;;
36355;SDS011;22384;54.302;18.596;2023-08-24T06:20:49;14.88;;;2.10;;
36355;SDS011;22384;54.302;18.596;2023-08-24T06:23:16;7.05;;;1.95;;
36355;SDS011;22384;54.302;18.596;2023-08-24T06:25:42;5.00;;;1.92;;
36355;SDS011;22384;54.302;18.596;2023-08-24T06:28:08;10.30;;;2.00;;
36355;SDS011;22384;54.302;18.596;2023-08-24T06:30:38;9.25;;;2.25;;
36355;SDS011;22384;54.302;18.596;2023-08-24T06:33:04;16.80;;;2.00;;
36355;SDS011;22384;54.302;18.596;2023-08-24T06:35:30;9.70;;;1.90;;
36355;SDS011;22384;54.302;18.596;2023-08-24T06:37:56;6.53;;;1.80;;
36355;SDS011;22384;54.302;18.596;2023-08-24T06:40:22;5.97;;;1.85;;
36355;SDS011;22384;54.302;18.596;2023-08-24T06:42:48;12.20;;;1.70;;
36355;SDS011;22384;54.302;18.596;2023-08-24T06:45:15;12.85;;;2.20;;
36355;SDS011;22384;54.302;18.596;2023-08-24T06:47:43;9.65;;;1.90;;
36355;SDS011;22384;54.302;18.596;2023-08-24T06:50:09;9.30;;;2.00;;
36355;SDS011;22384;54.302;18.596;2023-08-24T06:52:35;10.52;;;1.90;;
36355;SDS011;22384;54.302;18.596;2023-08-24T06:55:01;8.43;;;2.13;;
36355;SDS011;22384;54.302;18.596;2023-08-24T06:57:28;10.23;;;1.90;;
36355;SDS011;22384;54.302;18.596;2023-08-24T06:59:54;7.65;;;2.17;;
36355;SDS011;22384;54.302;18.596;2023-08-24T07:02:47;4.57;;;1.50;;
36355;SDS011;22384;54.302;18.596;2023-08-24T07:05:14;5.03;;;1.83;;
36355;SDS011;22384;54.302;18.596;2023-08-24T07:07:49;3.05;;;1.85;;
36355;SDS011;22384;54.302;18.596;2023-08-24T07:10:15;4.72;;;1.67;;
36355;SDS011;22384;54.302;18.596;2023-08-24T07:12:41;6.13;;;1.80;;
36355;SDS011;22384;54.302;18.596;2023-08-24T07:15:09;2.92;;;1.60;;
36355;SDS011;22384;54.302;18.596;2023-08-24T07:17:35;6.00;;;1.60;;
36355;SDS011;22384;54.302;18.596;2023-08-24T07:20:02;6.70;;;1.80;;
36355;SDS011;22384;54.302;18.596;2023-08-24T07:22:30;4.13;;;1.48;;
36355;SDS011;22384;54.302;18.596;2023-08-24T07:24:56;3.67;;;1.55;;
36355;SDS011;22384;54.302;18.596;2023-08-24T07:27:22;4.75;;;1.73;;
36355;SDS011;22384;54.302;18.596;2023-08-24T07:29:48;4.78;;;1.63;;
36355;SDS011;22384;54.302;18.596;2023-08-24T07:32:14;4.28;;;1.90;;
36355;SDS011;22384;54.302;18.596;2023-08-24T07:34:40;3.47;;;1.73;;
36355;SDS011;22384;54.302;18.596;2023-08-24T07:37:06;7.70;;;1.85;;
36355;SDS011;22384;54.302;18.596;2023-08-24T07:39:32;2.83;;;1.50;;
36355;SDS011;22384;54.302;18.596;2023-08-24T07:41:58;5.38;;;1.67;;
36355;SDS011;22384;54.302;18.596;2023-08-24T07:44:24;3.40;;;1.48;;
36355;SDS011;22384;54.302;18.596;2023-08-24T07:46:51;4.55;;;1.60;;
36355;SDS011;22384;54.302;18.596;2023-08-24T07:49:17;4.35;;;1.40;;
36355;SDS011;22384;54.302;18.596;2023-08-24T07:51:43;3.83;;;1.85;;
36355;SDS011;22384;54.302;18.596;2023-08-24T07:54:09;6.30;;;1.90;;
36355;SDS011;22384;54.302;18.596;2023-08-24T07:56:35;4.40;;;1.40;;
36355;SDS011;22384;54.302;18.596;2023-08-24T07:59:02;5.53;;;1.60;;
36355;SDS011;22384;54.302;18.596;2023-08-24T08:01:28;4.97;;;1.63;;
36355;SDS011;22384;54.302;18.596;2023-08-24T08:03:54;1.95;;;1.20;;
36355;SDS011;22384;54.302;18.596;2023-08-24T08:06:20;2.08;;;1.30;;
36355;SDS011;22384;54.302;18.596;2023-08-24T08:08:47;5.50;;;1.48;;
36355;SDS011;22384;54.302;18.596;2023-08-24T08:11:15;4.38;;;1.45;;
36355;SDS011;22384;54.302;18.596;2023-08-24T08:13:41;3.08;;;1.10;;
36355;SDS011;22384;54.302;18.596;2023-08-24T08:16:07;6.72;;;2.05;;
36355;SDS011;22384;54.302;18.596;2023-08-24T08:18:33;5.53;;;1.40;;
36355;SDS011;22384;54.302;18.596;2023-08-24T08:21:00;3.25;;;1.33;;
36355;SDS011;22384;54.302;18.596;2023-08-24T08:23:27;4.20;;;1.40;;
36355;SDS011;22384;54.302;18.596;2023-08-24T08:25:53;3.05;;;1.67;;
36355;SDS011;22384;54.302;18.596;2023-08-24T08:28:19;2.75;;;1.10;;
36355;SDS011;22384;54.302;18.596;2023-08-24T08:30:45;3.95;;;1.35;;
36355;SDS011;22384;54.302;18.596;2023-08-24T08:33:11;2.60;;;1.15;;
36355;SDS011;22384;54.302;18.596;2023-08-24T08:35:38;2.78;;;1.40;;
36355;SDS011;22384;54.302;18.596;2023-08-24T08:38:05;6.75;;;1.52;;
36355;SDS011;22384;54.302;18.596;2023-08-24T08:40:32;2.00;;;1.20;;
36355;SDS011;22384;54.302;18.596;2023-08-24T08:42:59;5.53;;;1.55;;
36355;SDS011;22384;54.302;18.596;2023-08-24T08:45:25;3.40;;;1.65;;
36355;SDS011;22384;54.302;18.596;2023-08-24T08:47:53;5.85;;;1.10;;
36355;SDS011;22384;54.302;18.596;2023-08-24T08:50:19;4.68;;;1.30;;
36355;SDS011;22384;54.302;18.596;2023-08-24T08:52:46;2.25;;;1.23;;
36355;SDS011;22384;54.302;18.596;2023-08-24T08:55:12;3.55;;;1.13;;
36355;SDS011;22384;54.302;18.596;2023-08-24T08:57:40;4.30;;;2.22;;
36355;SDS011;22384;54.302;18.596;2023-08-24T09:00:08;4.18;;;1.40;;
36355;SDS011;22384;54.302;18.596;2023-08-24T09:02:34;3.95;;;1.30;;
36355;SDS011;22384;54.302;18.596;2023-08-24T09:05:01;4.35;;;1.55;;
36355;SDS011;22384;54.302;18.596;2023-08-24T09:07:29;3.03;;;1.30;;
36355;SDS011;22384;54.302;18.596;2023-08-24T09:09:55;4.00;;;1.42;;
36355;SDS011;22384;54.302;18.596;2023-08-24T09:12:21;1.95;;;1.17;;
36355;SDS011;22384;54.302;18.596;2023-08-24T09:14:47;2.97;;;0.98;;
36355;SDS011;22384;54.302;18.596;2023-08-24T09:17:20;3.53;;;1.40;;
36355;SDS011;22384;54.302;18.596;2023-08-24T09:19:46;3.33;;;1.35;;
36355;SDS011;22384;54.302;18.596;2023-08-24T09:22:15;4.00;;;1.20;;
36355;SDS011;22384;54.302;18.596;2023-08-24T09:24:41;7.40;;;1.17;;
36355;SDS011;22384;54.302;18.596;2023-08-24T09:27:19;7.70;;;1.50;;
36355;SDS011;22384;54.302;18.596;2023-08-24T09:29:49;2.65;;;1.02;;
36355;SDS011;22384;54.302;18.596;2023-08-24T09:32:15;1.53;;;0.90;;
36355;SDS011;22384;54.302;18.596;2023-08-24T09:34:41;1.95;;;1.00;;
36355;SDS011;22384;54.302;18.596;2023-08-24T09:37:14;5.47;;;1.13;;
36355;SDS011;22384;54.302;18.596;2023-08-24T09:39:41;8.10;;;1.00;;
36355;SDS011;22384;54.302;18.596;2023-08-24T09:42:07;3.55;;;0.82;;
36355;SDS011;22384;54.302;18.596;2023-08-24T09:44:33;4.65;;;1.40;;
36355;SDS011;22384;54.302;18.596;2023-08-24T09:46:59;2.17;;;0.95;;
36355;SDS011;22384;54.302;18.596;2023-08-24T09:49:25;3.55;;;1.23;;
36355;SDS011;22384;54.302;18.596;2023-08-24T09:51:51;4.60;;;1.00;;
36355;SDS011;22384;54.302;18.596;2023-08-24T09:54:24;1.48;;;1.05;;
36355;SDS011;22384;54.302;18.596;2023-08-24T09:56:51;3.55;;;1.35;;
36355;SDS011;22384;54.302;18.596;2023-08-24T09:59:17;2.97;;;1.20;;
36355;SDS011;22384;54.302;18.596;2023-08-24T10:01:44;4.60;;;0.98;;
36355;SDS011;22384;54.302;18.596;2023-08-24T10:04:12;4.75;;;1.30;;
36355;SDS011;22384;54.302;18.596;2023-08-24T10:06:39;7.65;;;1.77;;
36355;SDS011;22384;54.302;18.596;2023-08-24T10:09:10;2.25;;;0.95;;
36355;SDS011;22384;54.302;18.596;2023-08-24T10:11:40;2.13;;;1.25;;
36355;SDS011;22384;54.302;18.596;2023-08-24T10:14:10;1.63;;;1.20;;
36355;SDS011;22384;54.302;18.596;2023-08-24T10:16:38;5.75;;;1.20;;
36355;SDS011;22384;54.302;18.596;2023-08-24T10:19:05;1.95;;;1.20;;
36355;SDS011;22384;54.302;18.596;2023-08-24T10:21:31;3.22;;;1.23;;
36355;SDS011;22384;54.302;18.596;2023-08-24T10:23:57;2.78;;;1.15;;
36355;SDS011;22384;54.302;18.596;2023-08-24T10:26:23;2.03;;;1.10;;
36355;SDS011;22384;54.302;18.596;2023-08-24T10:28:50;3.05;;;1.25;;
36355;SDS011;22384;54.302;18.596;2023-08-24T10:31:16;2.17;;;1.15;;
36355;SDS011;22384;54.302;18.596;2023-08-24T10:33:44;3.05;;;1.38;;
36355;SDS011;22384;54.302;18.596;2023-08-24T10:36:12;4.25;;;1.77;;
36355;SDS011;22384;54.302;18.596;2023-08-24T10:38:42;6.70;;;1.48;;
36355;SDS011;22384;54.302;18.596;2023-08-24T10:41:08;4.13;;;1.20;;
36355;SDS011;22384;54.302;18.596;2023-08-24T10:43:38;3.15;;;1.40;;
36355;SDS011;22384;54.302;18.596;2023-08-24T10:46:04;1.70;;;1.48;;
36355;SDS011;22384;54.302;18.596;2023-08-24T10:48:31;7.72;;;2.00;;
36355;SDS011;22384;54.302;18.596;2023-08-24T10:53:46;3.10;;;1.80;;
36355;SDS011;22384;54.302;18.596;2023-08-24T10:56:13;4.75;;;2.08;;
36355;SDS011;22384;54.302;18.596;2023-08-24T10:58:39;2.40;;;1.50;;
36355;SDS011;22384;54.302;18.596;2023-08-24T11:01:05;5.25;;;2.00;;
36355;SDS011;22384;54.302;18.596;2023-08-24T11:03:32;3.20;;;1.83;;
36355;SDS011;22384;54.302;18.596;2023-08-24T11:05:58;3.55;;;2.03;;
36355;SDS011;22384;54.302;18.596;2023-08-24T11:11:18;2.40;;;1.73;;
36355;SDS011;22384;54.302;18.596;2023-08-24T11:16:47;2.42;;;1.80;;
36355;SDS011;22384;54.302;18.596;2023-08-24T11:19:17;5.77;;;2.20;;
36355;SDS011;22384;54.302;18.596;2023-08-24T11:21:43;9.23;;;1.95;;
36355;SDS011;22384;54.302;18.596;2023-08-24T11:32:55;6.03;;;1.70;;
36355;SDS011;22384;54.302;18.596;2023-08-24T11:35:22;1.48;;;1.38;;
36355;SDS011;22384;54.302;18.596;2023-08-24T11:37:54;6.38;;;2.15;;
36355;SDS011;22384;54.302;18.596;2023-08-24T11:40:21;4.15;;;1.75;;
36355;SDS011;22384;54.302;18.596;2023-08-24T11:42:54;2.25;;;1.80;;
36355;SDS011;22384;54.302;18.596;2023-08-24T11:45:21;5.93;;;1.60;;
36355;SDS011;22384;54.302;18.596;2023-08-24T11:47:47;5.65;;;1.95;;
36355;SDS011;22384;54.302;18.596;2023-08-24T11:50:14;9.70;;;1.98;;
36355;SDS011;22384;54.302;18.596;2023-08-24T11:52:40;8.07;;;2.28;;
36355;SDS011;22384;54.302;18.596;2023-08-24T11:55:06;2.75;;;1.95;;
36355;SDS011;22384;54.302;18.596;2023-08-24T11:57:34;3.92;;;1.95;;
36355;SDS011;22384;54.302;18.596;2023-08-24T12:00:00;7.22;;;1.92;;
36355;SDS011;22384;54.302;18.596;2023-08-24T12:02:26;4.20;;;1.60;;
36355;SDS011;22384;54.302;18.596;2023-08-24T12:04:53;7.28;;;1.70;;
36355;SDS011;22384;54.302;18.596;2023-08-24T12:07:20;8.00;;;1.92;;
36355;SDS011;22384;54.302;18.596;2023-08-24T12:09:46;3.88;;;1.63;;
36355;SDS011;22384;54.302;18.596;2023-08-24T12:12:15;6.53;;;2.55;;
36355;SDS011;22384;54.302;18.596;2023-08-24T12:14:41;5.47;;;1.60;;
36355;SDS011;22384;54.302;18.596;2023-08-24T12:17:08;1.90;;;1.60;;
36355;SDS011;22384;54.302;18.596;2023-08-24T12:19:34;3.08;;;1.50;;
36355;SDS011;22384;54.302;18.596;2023-08-24T12:22:00;4.60;;;1.92;;
36355;SDS011;22384;54.302;18.596;2023-08-24T12:24:26;11.30;;;2.38;;
36355;SDS011;22384;54.302;18.596;2023-08-24T12:26:56;3.22;;;1.52;;
36355;SDS011;22384;54.302;18.596;2023-08-24T12:29:23;1.85;;;1.50;;
36355;SDS011;22384;54.302;18.596;2023-08-24T12:31:49;8.50;;;1.60;;
36355;SDS011;22384;54.302;18.596;2023-08-24T12:34:15;8.75;;;1.65;;
36355;SDS011;22384;54.302;18.596;2023-08-24T12:36:42;2.47;;;1.40;;
36355;SDS011;22384;54.302;18.596;2023-08-24T12:39:10;11.90;;;1.70;;
36355;SDS011;22384;54.302;18.596;2023-08-24T12:41:40;5.05;;;1.42;;
36355;SDS011;22384;54.302;18.596;2023-08-24T12:44:06;4.97;;;1.77;;
36355;SDS011;22384;54.302;18.596;2023-08-24T12:46:33;3.15;;;1.63;;
36355;SDS011;22384;54.302;18.596;2023-08-24T12:49:00;5.68;;;1.75;;
36355;SDS011;22384;54.302;18.596;2023-08-24T12:51:26;5.18;;;1.77;;
36355;SDS011;22384;54.302;18.596;2023-08-24T12:53:52;9.02;;;1.95;;
36355;SDS011;22384;54.302;18.596;2023-08-24T12:56:17;5.10;;;1.65;;
36355;SDS011;22384;54.302;18.596;2023-08-24T12:58:43;6.97;;;1.85;;
36355;SDS011;22384;54.302;18.596;2023-08-24T13:01:11;5.72;;;1.70;;
36355;SDS011;22384;54.302;18.596;2023-08-24T13:03:37;3.80;;;1.70;;
36355;SDS011;22384;54.302;18.596;2023-08-24T13:06:04;4.50;;;1.58;;
36355;SDS011;22384;54.302;18.596;2023-08-24T13:08:30;3.20;;;1.50;;
36355;SDS011;22384;54.302;18.596;2023-08-24T13:10:56;3.05;;;1.45;;
36355;SDS011;22384;54.302;18.596;2023-08-24T13:13:22;2.05;;;1.30;;
36355;SDS011;22384;54.302;18.596;2023-08-24T13:15:49;6.25;;;1.67;;
36355;SDS011;22384;54.302;18.596;2023-08-24T13:18:15;10.93;;;1.70;;
36355;SDS011;22384;54.302;18.596;2023-08-24T13:20:41;10.38;;;1.65;;
36355;SDS011;22384;54.302;18.596;2023-08-24T13:23:07;10.15;;;1.70;;
36355;SDS011;22384;54.302;18.596;2023-08-24T13:25:33;8.32;;;1.70;;
36355;SDS011;22384;54.302;18.596;2023-08-24T13:28:04;4.75;;;1.88;;
36355;SDS011;22384;54.302;18.596;2023-08-24T13:32:56;6.13;;;1.50;;
36355;SDS011;22384;54.302;18.596;2023-08-24T13:35:21;4.75;;;1.50;;
36355;SDS011;22384;54.302;18.596;2023-08-24T13:37:47;7.93;;;1.50;;
36355;SDS011;22384;54.302;18.596;2023-08-24T13:40:13;3.30;;;1.30;;
36355;SDS011;22384;54.302;18.596;2023-08-24T13:42:39;3.78;;;1.17;;
36355;SDS011;22384;54.302;18.596;2023-08-24T13:45:05;6.85;;;1.80;;
36355;SDS011;22384;54.302;18.596;2023-08-24T13:47:32;6.45;;;1.50;;
36355;SDS011;22384;54.302;18.596;2023-08-24T13:49:58;8.98;;;1.85;;
36355;SDS011;22384;54.302;18.596;2023-08-24T13:52:24;5.82;;;2.42;;
36355;SDS011;22384;54.302;18.596;2023-08-24T13:54:50;8.18;;;1.75;;
36355;SDS011;22384;54.302;18.596;2023-08-24T13:57:16;8.05;;;1.70;;
36355;SDS011;22384;54.302;18.596;2023-08-24T13:59:42;9.02;;;1.73;;
36355;SDS011;22384;54.302;18.596;2023-08-24T14:02:08;4.85;;;1.80;;
36355;SDS011;22384;54.302;18.596;2023-08-24T14:04:36;5.35;;;1.52;;
36355;SDS011;22384;54.302;18.596;2023-08-24T14:07:02;2.88;;;1.52;;
36355;SDS011;22384;54.302;18.596;2023-08-24T14:09:28;2.97;;;1.45;;
36355;SDS011;22384;54.302;18.596;2023-08-24T14:11:54;4.25;;;1.67;;
36355;SDS011;22384;54.302;18.596;2023-08-24T14:14:20;7.05;;;2.05;;
36355;SDS011;22384;54.302;18.596;2023-08-24T14:16:46;3.55;;;1.40;;
36355;SDS011;22384;54.302;18.596;2023-08-24T14:19:12;4.68;;;2.28;;
36355;SDS011;22384;54.302;18.596;2023-08-24T14:21:38;3.05;;;1.38;;
36355;SDS011;22384;54.302;18.596;2023-08-24T14:24:04;8.05;;;1.50;;
36355;SDS011;22384;54.302;18.596;2023-08-24T14:26:30;6.47;;;1.58;;
36355;SDS011;22384;54.302;18.596;2023-08-24T14:28:56;3.78;;;1.40;;
36355;SDS011;22384;54.302;18.596;2023-08-24T14:31:23;4.53;;;1.25;;
36355;SDS011;22384;54.302;18.596;2023-08-24T14:33:50;4.65;;;1.25;;
36355;SDS011;22384;54.302;18.596;2023-08-24T14:36:16;3.13;;;1.40;;
36355;SDS011;22384;54.302;18.596;2023-08-24T14:38:43;3.47;;;1.20;;
36355;SDS011;22384;54.302;18.596;2023-08-24T14:41:09;5.20;;;1.40;;
36355;SDS011;22384;54.302;18.596;2023-08-24T14:43:35;4.53;;;1.20;;
36355;SDS011;22384;54.302;18.596;2023-08-24T14:46:01;4.25;;;1.25;;
36355;SDS011;22384;54.302;18.596;2023-08-24T14:48:28;3.78;;;1.23;;
36355;SDS011;22384;54.302;18.596;2023-08-24T14:50:54;6.93;;;1.10;;
36355;SDS011;22384;54.302;18.596;2023-08-24T14:53:21;4.07;;;1.10;;
36355;SDS011;22384;54.302;18.596;2023-08-24T14:55:47;3.67;;;1.20;;
36355;SDS011;22384;54.302;18.596;2023-08-24T14:58:23;4.90;;;1.38;;